Latest Weather Observations for Yanakie

IDV60801

Issued at 8:52 am EST Thursday 1 October 2020 (issued every 10 minutes, with the page automatically refreshed every 10 minutes)

About weather observations | Map of weather stations | Latest weather observations for VIC | Other Formats
Station Details ID: 085301 Name: YANAKIE Lat: -38.81 Lon: 146.19 Height: 13.3 m
Data from the previous 72 hours. | See also: Recent months at Yanakie
Date/Time
EST
Temp
°C
App
Temp
°C
Dew
Point
°C
Rel
Hum
%
Delta-T
°C
Wind Press
QNH
hPa
Press
MSL
hPa
Rain since
9am
mm
Dir  Spd
km/h
Gust
km/h
Spd
kts
Gust
kts
01/08:30am 11.0 6.6 9.1 88 0.9 NW 22 28 12 15 1014.4 1014.4 8.2
01/08:00am 10.9 7.0 9.5 91 0.7 WNW 20 26 11 14 1013.9 1013.9 8.2
01/07:30am 9.6 5.3 8.0 90 0.8 NW 20 28 11 15 1013.7 1013.7 8.0
01/07:16am 9.2 3.3 7.3 88 0.9 WNW 28 41 15 22 1013.1 1013.1 8.0
01/07:00am 9.4 5.7 8.0 91 0.7 NW 17 22 9 12 1013.0 1013.0 8.0
01/06:30am 7.9 3.8 6.4 90 0.7 NW 17 22 9 12 1012.7 1012.7 8.0
01/06:00am 8.3 4.7 6.8 90 0.7 NW 15 19 8 10 1012.2 1012.2 8.0
01/05:30am 8.5 4.7 7.6 94 0.4 NW 17 22 9 12 1011.7 1011.7 8.0
01/05:00am 7.5 4.6 6.4 93 0.5 WNW 11 13 6 7 1011.3 1011.3 8.0
01/04:30am 7.8 4.1 6.4 91 0.6 WNW 15 20 8 11 1010.8 1010.8 8.0
01/04:00am 7.6 4.2 5.9 89 0.8 NW 13 17 7 9 1010.6 1010.6 8.0
01/03:30am 8.4 3.8 6.4 87 0.9 WNW 20 26 11 14 1010.3 1010.3 8.0
01/03:16am 9.4 4.8 8.2 92 0.6 WNW 22 54 12 29 1010.1 1010.1 7.6
01/03:00am 8.9 5.5 7.8 93 0.5 NW 15 19 8 10 1009.8 1009.8 7.6
01/02:30am 9.3 5.5 7.4 88 0.9 W 17 20 9 11 1009.7 1009.7 7.6
01/02:00am 10.2 6.2 9.0 92 0.6 W 20 41 11 22 1009.7 1009.7 7.4
01/01:30am 10.3 5.4 8.6 89 0.8 W 24 30 13 16 1009.4 1009.4 7.2
01/01:00am 10.9 5.8 9.3 90 0.8 W 26 39 14 21 1009.1 1009.1 7.2
01/12:48am 10.7 5.1 8.8 88 0.9 W 28 54 15 29 1008.9 1008.9 7.2
01/12:30am 11.7 7.7 10.4 92 0.7 W 22 28 12 15 1008.8 1008.8 6.8
01/12:00am 11.4 8.4 10.8 96 0.3 WNW 17 24 9 13 1008.7 1008.7 6.8
 
Date/Time
EST
Temp
°C
App
Temp
°C
Dew
Point
°C
Rel
Hum
%
Delta-T
°C
Wind Press
QNH
hPa
Press
MSL
hPa
Rain since
9am
mm
Dir  Spd
km/h
Gust
km/h
Spd
kts
Gust
kts
30/11:30pm 11.3 7.7 10.7 96 0.3 WNW 20 28 11 15 1008.6 1008.6 6.8
30/11:00pm 11.1 8.1 10.5 96 0.3 WNW 17 22 9 12 1008.6 1008.6 6.6
30/10:30pm 10.6 8.6 10.0 96 0.3 WNW 11 15 6 8 1008.3 1008.3 6.4
30/10:00pm 10.8 7.2 9.9 94 0.5 W 19 28 10 15 1008.7 1008.7 5.8
30/09:30pm 11.2 7.1 10.1 93 0.6 WSW 22 30 12 16 1008.7 1008.7 5.0
30/09:00pm 10.7 8.3 10.1 96 0.3 W 13 20 7 11 1008.4 1008.4 4.4
30/08:30pm 10.9 6.4 10.1 95 0.4 W 24 32 13 17 1008.2 1008.2 3.8
30/08:00pm 11.2 5.7 10.6 96 0.3 WSW 30 43 16 23 1008.3 1008.3 2.2
30/07:30pm 12.6 6.9 11.3 92 0.7 WSW 32 46 17 25 1007.1 1007.1 0.2
30/07:23pm 14.4 11.6 11.2 81 1.7 WNW 17 46 9 25 1007.1 1007.1 0.2
30/07:00pm 14.9 12.4 10.9 77 2.1 NNW 15 20 8 11 1006.0 1006.0 0.2
30/06:30pm 15.4 12.8 10.8 74 2.4 NNW 15 24 8 13 1005.8 1005.8 0.2
30/06:00pm 15.7 12.7 10.7 72 2.7 NNW 17 28 9 15 1005.6 1005.6 0.2
30/05:30pm 16.0 13.5 11.2 73 2.6 NNW 15 26 8 14 1005.8 1005.8 0.2
30/05:00pm 16.3 14.4 11.7 74 2.5 NNW 13 17 7 9 1005.8 1005.8 0.2
30/04:30pm 16.3 15.6 11.9 75 2.4 N 7 13 4 7 1005.9 1005.9 0.2
30/04:00pm 16.5 16.0 12.5 77 2.2 NNW 7 11 4 6 1006.1 1006.1 0.2
30/03:30pm 16.4 15.2 11.6 73 2.6 N 9 15 5 8 1006.4 1006.4 0.2
30/03:00pm 17.1 16.5 11.6 70 3.0 N 6 9 3 5 1006.7 1006.7 0.2
30/02:30pm 16.7 16.2 12.5 76 2.3 NW 7 11 4 6 1007.2 1007.2 0.2
30/02:00pm 16.4 13.2 11.3 72 2.8 NW 19 26 10 14 1007.7 1007.7 0.2
30/01:30pm 16.7 16.0 11.4 71 2.9 N 6 15 3 8 1008.0 1008.0 0.2
30/01:00pm 16.4 15.6 11.1 71 2.9 NE 6 11 3 6 1008.5 1008.5 0.2
30/12:30pm 16.6 15.5 10.7 68 3.1 NNE 7 13 4 7 1008.9 1008.9 0.2
30/12:00pm 14.9 13.9 10.9 77 2.1 ENE 7 9 4 5 1009.3 1009.3 0.2
30/11:30am 13.6 12.6 10.4 81 1.7 NE 6 9 3 5 1009.8 1009.8 0.2
30/11:00am 13.4 12.9 10.6 83 1.5 NE 4 7 2 4 1010.6 1010.6 0.2
30/10:30am 13.7 13.5 11.8 88 1.0 ENE 4 6 2 3 1011.3 1011.3 0.2
30/10:00am 13.3 12.6 11.5 89 1.0 NE 6 7 3 4 1012.0 1012.0 0.2
30/09:30am 12.3 12.3 11.2 93 0.6 NE 2 6 1 3 1012.7 1012.7 0.2
30/09:00am 12.3 11.6 11.4 94 0.5 NNE 6 9 3 5 1013.0 1013.0 0.4
30/08:30am 12.1 11.4 11.3 95 0.4 NNE 6 9 3 5 1013.2 1013.2 0.2
30/08:00am 11.1 10.0 10.5 96 0.3 N 7 13 4 7 1013.5 1013.5 0.2
30/07:30am 11.0 11.2 10.7 98 0.2 CALM 0 0 0 0 1013.1 1013.1 0.2
30/07:00am 10.7 10.0 10.2 97 0.3 WNW 4 6 2 3 1013.2 1013.2 0.2
30/06:30am 10.6 10.3 10.0 96 0.3 SSE 2 4 1 2 1012.8 1012.8 0.2
30/06:00am 11.0 9.9 10.1 94 0.5 N 6 11 3 6 1013.0 1013.0 0.2
30/05:30am 11.3 10.3 10.2 93 0.6 N 6 13 3 7 1012.8 1012.8 0.0
30/05:00am 11.0 9.9 10.1 94 0.5 SE 6 7 3 4 1012.3 1012.3 0.0
30/04:30am 10.9 10.1 9.8 93 0.6 E 4 9 2 5 1013.0 1013.0 0.0
30/04:00am 11.2 10.2 10.3 94 0.5 NNE 6 9 3 5 1013.1 1013.1 0.0
30/03:30am 11.7 10.0 11.1 96 0.3 NE 11 17 6 9 1013.1 1013.1 0.0
30/03:00am 11.7 9.9 10.8 94 0.5 NE 11 15 6 8 1013.3 1013.3 0.0
30/02:30am 11.5 9.9 10.2 92 0.7 NE 9 11 5 6 1013.6 1013.6 0.0
30/02:00am 11.2 10.0 10.3 94 0.5 NE 7 11 4 6 1014.1 1014.1 0.0
30/01:30am 11.1 9.5 10.2 94 0.5 NE 9 19 5 10 1014.6 1014.6 0.0
30/01:00am 11.2 9.5 10.0 92 0.6 NE 9 13 5 7 1015.0 1015.0 0.0
30/12:30am 10.9 9.2 9.8 93 0.6 NE 9 13 5 7 1015.5 1015.5 0.0
30/12:00am 10.6 9.2 9.5 93 0.6 NE 7 11 4 6 1016.1 1016.1 0.0
 
Date/Time
EST
Temp
°C
App
Temp
°C
Dew
Point
°C
Rel
Hum
%
Delta-T
°C
Wind Press
QNH
hPa
Press
MSL
hPa
Rain since
9am
mm
Dir  Spd
km/h
Gust
km/h
Spd
kts
Gust
kts
29/11:30pm 10.8 9.4 9.7 93 0.6 NE 7 11 4 6 1016.4 1016.4 0.0
29/11:00pm 10.8 9.4 9.6 92 0.6 ENE 7 11 4 6 1016.9 1016.9 0.0
29/10:30pm 11.1 9.3 9.5 90 0.8 ENE 9 15 5 8 1017.3 1017.3 0.0
29/10:00pm 11.2 8.6 9.5 89 0.9 ENE 13 17 7 9 1017.4 1017.4 0.0
29/09:30pm 11.3 8.8 9.7 90 0.8 ENE 13 17 7 9 1017.7 1017.7 0.0
29/09:00pm 11.5 9.1 9.9 90 0.8 E 13 20 7 11 1018.1 1018.1 0.0
29/08:30pm 11.7 8.1 9.8 88 1.0 ENE 19 24 10 13 1018.2 1018.2 0.0
29/08:00pm 11.7 7.9 9.8 88 1.0 ENE 20 28 11 15 1018.3 1018.3 0.0
29/07:30pm 11.8 7.6 9.7 87 1.1 ENE 22 35 12 19 1018.3 1018.3 0.0
29/07:00pm 11.8 7.5 9.5 86 1.2 ENE 22 32 12 17 1018.1 1018.1 0.0
29/06:30pm 11.9 7.2 9.3 84 1.3 ENE 24 32 13 17 1018.3 1018.3 0.0
29/06:00pm 12.2 7.5 9.2 82 1.5 ENE 24 33 13 18 1018.2 1018.2 0.0
29/05:30pm 12.4 8.7 10.1 86 1.2 ENE 20 28 11 15 1018.4 1018.4 0.0
29/05:00pm 12.6 9.0 9.8 83 1.4 E 19 32 10 17 1018.5 1018.5 0.0
29/04:30pm 13.4 9.8 9.8 79 1.8 E 19 32 10 17 1018.6 1018.6 0.0
29/04:00pm 13.2 9.7 10.2 82 1.5 E 19 28 10 15 1018.6 1018.6 0.0
29/03:30pm 13.8 10.1 9.6 76 2.2 E 19 33 10 18 1019.0 1019.0 0.0
29/03:00pm 13.5 9.5 9.2 75 2.2 E 20 32 11 17 1019.5 1019.5 0.0
29/02:30pm 14.7 11.3 10.5 76 2.2 E 19 30 10 16 1020.0 1020.0 0.0
29/02:00pm 14.7 12.3 10.1 74 2.4 E 13 22 7 12 1020.5 1020.5 0.0
29/01:30pm 14.7 11.9 10.1 74 2.4 E 15 24 8 13 1021.2 1021.2 0.0
29/01:00pm 14.9 11.7 10.1 73 2.5 E 17 26 9 14 1021.8 1021.8 0.0
29/12:30pm 15.4 12.8 10.6 73 2.5 E 15 24 8 13 1022.3 1022.3 0.0
29/12:00pm 15.0 12.3 10.2 73 2.5 E 15 22 8 12 1022.7 1022.7 0.0
29/11:30am 14.4 11.0 9.0 70 2.7 E 17 24 9 13 1023.2 1023.2 0.0
29/11:00am 13.8 10.4 9.3 74 2.3 E 17 24 9 13 1023.6 1023.6 0.0
29/10:30am 12.9 9.3 8.4 74 2.2 ENE 17 22 9 12 1024.0 1024.0 0.0
29/10:00am 12.2 9.5 8.9 80 1.6 ENE 13 20 7 11 1024.4 1024.4 0.0
29/09:30am 11.2 8.7 8.2 82 1.5 ENE 11 17 6 9 1025.0 1025.0 0.0
29/09:00am 11.1 9.0 8.3 83 1.4 ENE 9 13 5 7 1025.7 1025.7 0.0
29/08:30am 10.1 7.9 7.9 86 1.1 ENE 9 13 5 7 1025.7 1025.7 0.0
29/08:00am 8.8 7.6 7.9 94 0.4 NE 4 7 2 4 1026.0 1026.0 0.0
29/07:30am 6.8 5.7 6.7 99 0.0 NNE 2 4 1 2 1025.8 1025.8 0.0
29/07:00am 5.0 3.9 4.9 99 0.0 CALM 0 0 0 0 1025.5 1025.5 0.0
29/06:30am 2.2 -0.2 2.1 99 0.0 N 4 6 2 3 1025.2 1025.2 0.0
29/06:00am 3.2 1.0 3.1 99 0.0 N 4 4 2 2 1024.8 1024.8 0.0
29/05:30am 3.4 2.0 3.3 99 0.0 CALM 0 0 0 0 1024.5 1024.5 0.0
29/05:00am 2.4 0.7 2.1 98 0.1 CALM 0 2 0 1 1024.4 1024.4 0.0
29/04:30am 3.0 0.7 2.7 98 0.1 NE 4 6 2 3 1024.3 1024.3 0.0
29/04:00am 4.1 1.6 3.8 98 0.1 NNE 6 7 3 4 1024.4 1024.4 0.0
29/03:30am 3.0 0.7 2.6 97 0.2 SE 4 6 2 3 1024.6 1024.6 0.0
29/03:00am 4.2 2.1 3.8 97 0.2 ESE 4 6 2 3 1025.0 1025.0 0.0
29/02:30am 3.9 2.1 3.5 97 0.2 NNE 2 6 1 3 1025.5 1025.5 0.0
29/02:00am 4.0 2.6 3.4 96 0.2 CALM 0 0 0 0 1026.0 1026.0 0.0
29/01:30am 5.1 2.8 4.8 98 0.1 N 6 7 3 4 1026.3 1026.3 0.0
29/01:00am 3.0 0.1 2.4 96 0.2 NNE 7 7 4 4 1026.3 1026.3 0.0
29/12:30am 3.5 0.8 2.9 96 0.2 N 6 9 3 5 1026.6 1026.6 0.0
29/12:00am 3.6 2.1 3.0 96 0.2 CALM 0 0 0 0 1026.6 1026.6 0.0
 
Date/Time
EST
Temp
°C
App
Temp
°C
Dew
Point
°C
Rel
Hum
%
Delta-T
°C
Wind Press
QNH
hPa
Press
MSL
hPa
Rain since
9am
mm
Dir  Spd
km/h
Gust
km/h
Spd
kts
Gust
kts
28/11:30pm 4.3 2.9 3.6 95 0.3 CALM 0 0 0 0 1026.6 1026.6 0.0
28/11:00pm 4.4 3.0 3.4 93 0.4 CALM 0 0 0 0 1026.9 1026.9 0.0
28/10:30pm 5.8 4.6 4.6 92 0.5 CALM 0 0 0 0 1027.0 1027.0 0.0
28/10:00pm 6.2 5.1 5.0 92 0.5 CALM 0 0 0 0 1027.2 1027.2 0.0
28/09:30pm 6.6 5.2 5.4 92 0.5 N 2 4 1 2 1027.3 1027.3 0.0
28/09:00pm 6.5 5.4 5.0 90 0.7 CALM 0 4 0 2 1027.4 1027.4 0.0
28/08:30pm 7.1 6.0 5.3 88 0.8 CALM 0 4 0 2 1027.6 1027.6 0.0
28/08:00pm 7.7 6.0 5.7 87 0.9 W 4 6 2 3 1027.4 1027.4 0.0
28/07:30pm 8.5 6.8 6.1 85 1.1 SSW 4 6 2 3 1027.3 1027.3 0.0
28/07:00pm 8.0 5.7 5.6 85 1.1 SW 7 11 4 6 1027.0 1027.0 0.0
28/06:30pm 8.6 5.9 5.7 82 1.3 WSW 9 13 5 7 1027.0 1027.0 0.0
28/06:00pm 9.7 7.2 6.4 80 1.5 WSW 9 15 5 8 1027.0 1027.0 0.0
28/05:30pm 10.2 7.3 6.4 77 1.8 SW 11 19 6 10 1026.8 1026.8 0.0
28/05:00pm 10.7 7.1 6.6 76 1.9 SW 15 22 8 12 1026.6 1026.6 0.0
28/04:30pm 11.4 7.3 6.1 70 2.5 SW 17 20 9 11 1026.4 1026.4 0.0
28/04:00pm 11.2 7.0 5.7 69 2.5 SW 17 26 9 14 1026.5 1026.5 0.0
28/03:30pm 12.3 8.4 7.0 70 2.5 SW 17 24 9 13 1026.5 1026.5 0.0
28/03:00pm 11.9 7.9 6.6 70 2.5 SW 17 22 9 12 1026.6 1026.6 0.0
28/02:30pm 12.2 7.8 7.3 72 2.4 SW 20 28 11 15 1026.9 1026.9 0.0
28/02:00pm 11.9 7.4 6.8 71 2.4 SW 20 28 11 15 1027.3 1027.3 0.0
28/01:30pm 12.4 7.9 6.9 69 2.6 WSW 20 28 11 15 1027.4 1027.4 0.0
28/01:00pm 12.0 7.1 6.7 70 2.5 WSW 22 30 12 16 1027.7 1027.7 0.0
28/12:30pm 11.8 7.5 6.9 72 2.3 WSW 19 26 10 14 1027.9 1027.9 0.0
28/12:00pm 11.9 6.8 6.0 67 2.7 SW 22 28 12 15 1028.0 1028.0 0.0
28/11:30am 11.8 6.9 6.7 71 2.4 WSW 22 30 12 16 1028.2 1028.2 0.0
28/11:00am 11.4 7.0 6.5 72 2.3 WSW 19 24 10 13 1028.4 1028.4 0.0
28/10:30am 11.5 7.1 6.6 72 2.3 WSW 19 24 10 13 1028.6 1028.6 0.0
28/10:00am 11.6 7.2 6.7 72 2.3 W 19 26 10 14 1028.7 1028.7 0.0
28/09:30am 11.4 6.8 6.3 71 2.4 SW 20 32 11 17 1028.6 1028.6 0.0
28/09:00am 10.8 6.1 6.0 72 2.2 SW 20 28 11 15 1028.4 1028.4 0.0

Other formats

Comma delimited format used in spreadsheet applications
http://www.bom.gov.au/fwo/IDV60801/IDV60801.94911.axf

JavaScript Object Notation format (JSON) in row-major order
http://www.bom.gov.au/fwo/IDV60801/IDV60801.94911.json

Data quality

Most of these data are generated automatically and are frequently updated. Quality checks on data are not normally performed. It is possible for incorrect values to appear. Refer to information at About Latest Weather Observations and please check the disclaimer before using these data.